Ida Theresa — V7RQ9 — position and weather

sailwx.info

Track history (hours):
 
Tides and Currents Weather Stations Pressure Air Temp Water Temp Dewpoint Dewpoint Depression Visibility Wind Speed Wind Dir Waves Ship Positions

Ida Theresa

Last reported at 2014-Jul-07 02:32 UTC. Time now 2014-Jul-23 03:18 UTC.
Position N 40°31' E 027°01'.
Warning: this ship's position is 16 days out of date.

Length 120 m; draft 8 m.

Type: Tanker. MMSI: 538090386.

Date/timePositionNaut miles runAvg speedWind from/ knotsBaromVisibWave heightAir tempDewpointWater temp
2014-Jul-07 02:32N 40°31' E 027°01'1411.0
2014-Jul-07 01:13N 40°25' E 026°44'910.5
2014-Jul-07 00:23N 40°19' E 026°36'28 9.5
2014-Jul-06 21:28N 40°01' E 026°09'7 6.4
2014-Jul-06 20:26N 39°58' E 026°01'1010.3
2014-Jul-06 19:30N 39°51' E 025°53'49 1.9
2014-Jul-05 18:24N 39°03' E 025°44'  
2014-Jun-30 06:19N 38°43' E 025°34'85 9.6
2014-Jun-29 21:28N 37°36' E 024°28'3710.9
2014-Jun-29 18:05N 37°06' E 024°00'811.3
2014-Jun-29 17:24N 37°00' E 023°54'1011.0
2014-Jun-29 16:27N 36°52' E 023°47'1111.0
2014-Jun-29 15:26N 36°43' E 023°38'1011.3
2014-Jun-29 14:33N 36°36' E 023°29'1311.5
2014-Jun-29 13:26N 36°27' E 023°19'41911.2
2014-Jun-28 00:07N 36°21' E 014°38'611.4
2014-Jun-27 23:33N 36°23' E 014°30'1111.3
2014-Jun-27 22:33N 36°26' E 014°17'1111.1
2014-Jun-27 21:33N 36°29' E 014°04'1211.1
2014-Jun-27 20:29N 36°32' E 013°49'1011.0
2014-Jun-27 19:33N 36°36' E 013°38'1111.1
2014-Jun-27 18:33N 36°39' E 013°24'1111.4
2014-Jun-27 17:33N 36°42' E 013°11'1111.5
2014-Jun-27 16:33N 36°46' E 012°57'1211.9
2014-Jun-27 15:33N 36°49' E 012°43'1212.0
2014-Jun-27 14:33N 36°53' E 012°28'1211.9
2014-Jun-27 13:33N 36°56' E 012°14'1211.7
2014-Jun-27 12:33N 36°60' E 012°00'3511.9
2014-Jun-27 09:33N 37°18' E 011°22'1212.0
2014-Jun-27 08:33N 37°24' E 011°08'  
Track history (hours):
 
Tides and Currents Weather Stations Pressure Air Temp Water Temp Dewpoint Dewpoint Depression Visibility Wind Speed Wind Dir Waves Ship Positions

Ida Theresa

Last reported at 2014-Jul-07 02:32 UTC. Time now 2014-Jul-23 03:18 UTC.
Position N 40°31' E 027°01'.
Warning: this ship's position is 16 days out of date.

Length 120 m; draft 8 m.

Type: Tanker. MMSI: 538090386.

Date/timePositionNaut miles runAvg speedWind from/ knotsBaromVisibWave heightAir tempDewpointWater temp
2014-Jul-07 02:32N 40°31' E 027°01'1411.0
2014-Jul-07 01:13N 40°25' E 026°44'910.5
2014-Jul-07 00:23N 40°19' E 026°36'28 9.5
2014-Jul-06 21:28N 40°01' E 026°09'7 6.4
2014-Jul-06 20:26N 39°58' E 026°01'1010.3
2014-Jul-06 19:30N 39°51' E 025°53'49 1.9
2014-Jul-05 18:24N 39°03' E 025°44'  
2014-Jun-30 06:19N 38°43' E 025°34'85 9.6
2014-Jun-29 21:28N 37°36' E 024°28'3710.9
2014-Jun-29 18:05N 37°06' E 024°00'811.3
2014-Jun-29 17:24N 37°00' E 023°54'1011.0
2014-Jun-29 16:27N 36°52' E 023°47'1111.0
2014-Jun-29 15:26N 36°43' E 023°38'1011.3
2014-Jun-29 14:33N 36°36' E 023°29'1311.5
2014-Jun-29 13:26N 36°27' E 023°19'41911.2
2014-Jun-28 00:07N 36°21' E 014°38'611.4
2014-Jun-27 23:33N 36°23' E 014°30'1111.3
2014-Jun-27 22:33N 36°26' E 014°17'1111.1
2014-Jun-27 21:33N 36°29' E 014°04'1211.1
2014-Jun-27 20:29N 36°32' E 013°49'1011.0
2014-Jun-27 19:33N 36°36' E 013°38'1111.1
2014-Jun-27 18:33N 36°39' E 013°24'1111.4
2014-Jun-27 17:33N 36°42' E 013°11'1111.5
2014-Jun-27 16:33N 36°46' E 012°57'1211.9
2014-Jun-27 15:33N 36°49' E 012°43'1212.0
2014-Jun-27 14:33N 36°53' E 012°28'1211.9
2014-Jun-27 13:33N 36°56' E 012°14'1211.7
2014-Jun-27 12:33N 36°60' E 012°00'3511.9
2014-Jun-27 09:33N 37°18' E 011°22'1212.0
2014-Jun-27 08:33N 37°24' E 011°08'  

Dump ship's entire track history